sensor_id;sensor_type;location;lat;lon;timestamp;pressure;altitude;pressure_sealevel;temperature;humidity
23953;BME280;12163;49.316;6.092;2022-11-09T00:01:03;98834.75;;;14.67;81.68
23953;BME280;12163;49.316;6.092;2022-11-09T00:03:30;98830.44;;;14.66;82.42
23953;BME280;12163;49.316;6.092;2022-11-09T00:05:58;98819.09;;;14.64;82.39
23953;BME280;12163;49.316;6.092;2022-11-09T00:08:25;98818.63;;;14.62;82.48
23953;BME280;12163;49.316;6.092;2022-11-09T00:10:51;98820.22;;;14.63;82.75
23953;BME280;12163;49.316;6.092;2022-11-09T00:13:18;98817.03;;;14.61;82.87
23953;BME280;12163;49.316;6.092;2022-11-09T00:15:45;98814.31;;;14.61;82.76
23953;BME280;12163;49.316;6.092;2022-11-09T00:18:11;98811.13;;;14.59;83.36
23953;BME280;12163;49.316;6.092;2022-11-09T00:20:38;98798.03;;;14.61;83.56
23953;BME280;12163;49.316;6.092;2022-11-09T00:23:12;98808.56;;;14.62;83.20
23953;BME280;12163;49.316;6.092;2022-11-09T00:25:38;98806.63;;;14.63;83.64
23953;BME280;12163;49.316;6.092;2022-11-09T00:28:05;98803.44;;;14.61;83.66
23953;BME280;12163;49.316;6.092;2022-11-09T00:30:32;98812.72;;;14.60;83.67
23953;BME280;12163;49.316;6.092;2022-11-09T00:32:58;98811.13;;;14.59;84.29
23953;BME280;12163;49.316;6.092;2022-11-09T00:35:25;98804.56;;;14.60;84.12
23953;BME280;12163;49.316;6.092;2022-11-09T00:37:52;98808.41;;;14.59;84.53
23953;BME280;12163;49.316;6.092;2022-11-09T00:40:18;98801.84;;;14.60;84.67
23953;BME280;12163;49.316;6.092;2022-11-09T00:42:45;98820.41;;;14.58;84.97
23953;BME280;12163;49.316;6.092;2022-11-09T00:45:11;98817.38;;;14.59;84.74
23953;BME280;12163;49.316;6.092;2022-11-09T00:47:38;98817.50;;;14.63;85.34
23953;BME280;12163;49.316;6.092;2022-11-09T00:50:05;98817.50;;;14.63;85.61
23953;BME280;12163;49.316;6.092;2022-11-09T00:52:31;98816.72;;;14.62;85.06
23953;BME280;12163;49.316;6.092;2022-11-09T00:54:58;98813.66;;;14.64;85.54
23953;BME280;12163;49.316;6.092;2022-11-09T00:57:25;98803.59;;;14.64;85.50
23953;BME280;12163;49.316;6.092;2022-11-09T00:59:51;98807.44;;;14.63;85.42
23953;BME280;12163;49.316;6.092;2022-11-09T01:02:19;98799.59;;;14.62;85.42
23953;BME280;12163;49.316;6.092;2022-11-09T01:04:46;98806.63;;;14.63;85.24
23953;BME280;12163;49.316;6.092;2022-11-09T01:07:12;98806.63;;;14.63;85.50
23953;BME280;12163;49.316;6.092;2022-11-09T01:09:39;98812.41;;;14.61;85.76
23953;BME280;12163;49.316;6.092;2022-11-09T01:12:05;98800.72;;;14.61;85.38
23953;BME280;12163;49.316;6.092;2022-11-09T01:14:32;98794.06;;;14.58;85.76
23953;BME280;12163;49.316;6.092;2022-11-09T01:16:58;98790.88;;;14.56;85.62
23953;BME280;12163;49.316;6.092;2022-11-09T01:19:25;98801.28;;;14.54;85.52
23953;BME280;12163;49.316;6.092;2022-11-09T01:21:52;98809.41;;;14.54;86.17
23953;BME280;12163;49.316;6.092;2022-11-09T01:24:18;98799.19;;;14.51;86.24
23953;BME280;12163;49.316;6.092;2022-11-09T01:26:45;98804.97;;;14.50;86.14
23953;BME280;12163;49.316;6.092;2022-11-09T01:29:11;98805.75;;;14.50;86.35
23953;BME280;12163;49.316;6.092;2022-11-09T01:31:38;98802.25;;;14.50;86.19
23953;BME280;12163;49.316;6.092;2022-11-09T01:34:04;98792.06;;;14.47;86.47
23953;BME280;12163;49.316;6.092;2022-11-09T01:36:31;98798.59;;;14.46;86.12
23953;BME280;12163;49.316;6.092;2022-11-09T01:38:58;98795.44;;;14.44;86.35
23953;BME280;12163;49.316;6.092;2022-11-09T01:41:26;98805.78;;;14.42;86.91
23953;BME280;12163;49.316;6.092;2022-11-09T01:44:09;98797.84;;;14.37;86.85
23953;BME280;12163;49.316;6.092;2022-11-09T01:49:12;98803.28;;;14.37;86.81
23953;BME280;12163;49.316;6.092;2022-11-09T01:51:42;98804.09;;;14.37;87.06
23953;BME280;12163;49.316;6.092;2022-11-09T01:54:23;98806.44;;;14.39;87.09
23953;BME280;12163;49.316;6.092;2022-11-09T01:56:54;98792.22;;;14.42;86.99
23953;BME280;12163;49.316;6.092;2022-11-09T01:59:29;98806.75;;;14.46;87.13
23953;BME280;12163;49.316;6.092;2022-11-09T02:01:57;98798.25;;;14.47;86.44
23953;BME280;12163;49.316;6.092;2022-11-09T02:04:30;98803.03;;;14.50;86.57
23953;BME280;12163;49.316;6.092;2022-11-09T02:06:58;98801.13;;;14.51;86.53
23953;BME280;12163;49.316;6.092;2022-11-09T02:09:42;98806.56;;;14.51;86.43
23953;BME280;12163;49.316;6.092;2022-11-09T02:12:11;98807.03;;;14.53;86.39
23953;BME280;12163;49.316;6.092;2022-11-09T02:14:37;98823.31;;;14.53;85.99
23953;BME280;12163;49.316;6.092;2022-11-09T02:17:05;98817.22;;;14.56;86.13
23953;BME280;12163;49.316;6.092;2022-11-09T02:19:32;98816.56;;;14.59;86.60
23953;BME280;12163;49.316;6.092;2022-11-09T02:21:58;98822.00;;;14.59;86.42
23953;BME280;12163;49.316;6.092;2022-11-09T02:24:25;98818.63;;;14.62;86.00
23953;BME280;12163;49.316;6.092;2022-11-09T02:26:53;98829.94;;;14.64;86.18
23953;BME280;12163;49.316;6.092;2022-11-09T02:29:25;98824.50;;;14.64;86.01
23953;BME280;12163;49.316;6.092;2022-11-09T02:31:57;98819.09;;;14.64;85.87
23953;BME280;12163;49.316;6.092;2022-11-09T02:34:24;98826.91;;;14.65;86.39
23953;BME280;12163;49.316;6.092;2022-11-09T02:36:51;98812.88;;;14.63;86.30
23953;BME280;12163;49.316;6.092;2022-11-09T02:39:21;98819.09;;;14.64;86.08
23953;BME280;12163;49.316;6.092;2022-11-09T02:41:56;98804.38;;;14.65;85.96
23953;BME280;12163;49.316;6.092;2022-11-09T02:44:29;98812.53;;;14.65;86.28
23953;BME280;12163;49.316;6.092;2022-11-09T02:46:57;98806.63;;;14.63;86.36
23953;BME280;12163;49.316;6.092;2022-11-09T02:49:23;98817.50;;;14.63;85.97
23953;BME280;12163;49.316;6.092;2022-11-09T02:51:50;98810.47;;;14.62;86.49
23953;BME280;12163;49.316;6.092;2022-11-09T02:54:16;98810.47;;;14.62;86.64
23953;BME280;12163;49.316;6.092;2022-11-09T02:56:43;98811.28;;;14.62;86.56
23953;BME280;12163;49.316;6.092;2022-11-09T02:59:09;98801.19;;;14.63;85.63
23953;BME280;12163;49.316;6.092;2022-11-09T03:01:36;98806.16;;;14.61;85.78
23953;BME280;12163;49.316;6.092;2022-11-09T03:04:03;98804.25;;;14.61;85.75
23953;BME280;12163;49.316;6.092;2022-11-09T03:06:29;98798.03;;;14.61;85.75
23953;BME280;12163;49.316;6.092;2022-11-09T03:09:04;98801.84;;;14.60;86.10
23953;BME280;12163;49.316;6.092;2022-11-09T03:11:32;98807.28;;;14.60;85.94
23953;BME280;12163;49.316;6.092;2022-11-09T03:13:58;98808.41;;;14.59;85.96
23953;BME280;12163;49.316;6.092;2022-11-09T03:16:25;98799.81;;;14.57;85.99
23953;BME280;12163;49.316;6.092;2022-11-09T03:18:51;98808.28;;;14.55;86.55
23953;BME280;12163;49.316;6.092;2022-11-09T03:21:18;98803.34;;;14.57;86.11
23953;BME280;12163;49.316;6.092;2022-11-09T03:23:45;98807.63;;;14.58;85.79
23953;BME280;12163;49.316;6.092;2022-11-09T03:26:11;98811.13;;;14.59;86.10
23953;BME280;12163;49.316;6.092;2022-11-09T03:28:38;98805.25;;;14.57;85.98
23953;BME280;12163;49.316;6.092;2022-11-09T03:31:05;98799.50;;;14.58;85.99
23953;BME280;12163;49.316;6.092;2022-11-09T03:33:32;98786.69;;;14.59;85.58
23953;BME280;12163;49.316;6.092;2022-11-09T03:35:59;98792.78;;;14.56;86.11
23953;BME280;12163;49.316;6.092;2022-11-09T03:38:25;98790.06;;;14.56;85.91
23953;BME280;12163;49.316;6.092;2022-11-09T03:40:52;98783.06;;;14.55;86.06
23953;BME280;12163;49.316;6.092;2022-11-09T03:43:18;98780.34;;;14.55;85.60
23953;BME280;12163;49.316;6.092;2022-11-09T03:45:46;98781.47;;;14.54;85.64
23953;BME280;12163;49.316;6.092;2022-11-09T03:48:13;98786.22;;;14.57;86.11
23953;BME280;12163;49.316;6.092;2022-11-09T03:50:39;98783.06;;;14.55;85.49
23953;BME280;12163;49.316;6.092;2022-11-09T03:53:07;98783.06;;;14.55;86.11
23953;BME280;12163;49.316;6.092;2022-11-09T03:55:38;98798.56;;;14.54;85.87
23953;BME280;12163;49.316;6.092;2022-11-09T03:58:06;98805.44;;;14.52;85.96
23953;BME280;12163;49.316;6.092;2022-11-09T04:00:33;98809.28;;;14.51;86.09
23953;BME280;12163;49.316;6.092;2022-11-09T04:03:01;98811.53;;;14.49;86.23
23953;BME280;12163;49.316;6.092;2022-11-09T04:05:28;98809.13;;;14.47;85.84
23953;BME280;12163;49.316;6.092;2022-11-09T04:07:56;98807.88;;;14.45;86.42
23953;BME280;12163;49.316;6.092;2022-11-09T04:10:24;98806.59;;;14.42;86.13
23953;BME280;12163;49.316;6.092;2022-11-09T04:12:51;98809.00;;;14.44;86.32
23953;BME280;12163;49.316;6.092;2022-11-09T04:15:18;98810.44;;;14.41;86.58
23953;BME280;12163;49.316;6.092;2022-11-09T04:17:53;98802.16;;;14.38;86.24
23953;BME280;12163;49.316;6.092;2022-11-09T04:20:20;98793.22;;;14.37;86.80
23953;BME280;12163;49.316;6.092;2022-11-09T04:22:56;98792.41;;;14.37;87.04
23953;BME280;12163;49.316;6.092;2022-11-09T04:25:24;98792.88;;;14.39;86.89
23953;BME280;12163;49.316;6.092;2022-11-09T04:27:55;98802.63;;;14.40;87.04
23953;BME280;12163;49.316;6.092;2022-11-09T04:30:23;98815.06;;;14.41;86.56
23953;BME280;12163;49.316;6.092;2022-11-09T04:32:49;98803.41;;;14.40;86.72
23953;BME280;12163;49.316;6.092;2022-11-09T04:35:16;98802.97;;;14.38;86.48
23953;BME280;12163;49.316;6.092;2022-11-09T04:37:43;98811.09;;;14.38;86.72
23953;BME280;12163;49.316;6.092;2022-11-09T04:40:10;98815.72;;;14.38;86.68
23953;BME280;12163;49.316;6.092;2022-11-09T04:42:36;98815.72;;;14.38;86.84
23953;BME280;12163;49.316;6.092;2022-11-09T04:45:03;98815.06;;;14.41;86.37
23953;BME280;12163;49.316;6.092;2022-11-09T04:47:30;98806.13;;;14.40;86.24
23953;BME280;12163;49.316;6.092;2022-11-09T04:49:56;98814.28;;;14.40;86.43
23953;BME280;12163;49.316;6.092;2022-11-09T04:52:23;98810.28;;;14.38;86.33
23953;BME280;12163;49.316;6.092;2022-11-09T04:54:50;98822.63;;;14.35;86.00
23953;BME280;12163;49.316;6.092;2022-11-09T04:57:16;98820.88;;;14.31;86.39
23953;BME280;12163;49.316;6.092;2022-11-09T04:59:43;98825.50;;;14.30;86.48
23953;BME280;12163;49.316;6.092;2022-11-09T05:02:09;98819.94;;;14.27;86.23
23953;BME280;12163;49.316;6.092;2022-11-09T05:04:36;98828.38;;;14.25;86.33
23953;BME280;12163;49.316;6.092;2022-11-09T05:07:02;98841.97;;;14.25;86.48
23953;BME280;12163;49.316;6.092;2022-11-09T05:09:29;98831.09;;;14.25;86.43
23953;BME280;12163;49.316;6.092;2022-11-09T05:11:55;98835.75;;;14.25;86.18
23953;BME280;12163;49.316;6.092;2022-11-09T05:14:22;98839.25;;;14.25;85.85
23953;BME280;12163;49.316;6.092;2022-11-09T05:16:49;98826.78;;;14.24;86.12
23953;BME280;12163;49.316;6.092;2022-11-09T05:19:15;98836.41;;;14.22;86.26
23953;BME280;12163;49.316;6.092;2022-11-09T05:21:42;98828.25;;;14.22;86.01
23953;BME280;12163;49.316;6.092;2022-11-09T05:24:09;98831.13;;;14.17;85.91
23953;BME280;12163;49.316;6.092;2022-11-09T05:26:40;98828.75;;;14.15;86.21
23953;BME280;12163;49.316;6.092;2022-11-09T05:29:11;98834.81;;;14.12;85.99
23953;BME280;12163;49.316;6.092;2022-11-09T05:31:38;98846.44;;;14.13;86.44
23953;BME280;12163;49.316;6.092;2022-11-09T05:34:06;98841.69;;;14.10;86.51
23953;BME280;12163;49.316;6.092;2022-11-09T05:36:32;98856.38;;;14.09;86.64
23953;BME280;12163;49.316;6.092;2022-11-09T05:38:59;98854.13;;;14.11;86.38
23953;BME280;12163;49.316;6.092;2022-11-09T05:41:26;98840.09;;;14.09;86.89
23953;BME280;12163;49.316;6.092;2022-11-09T05:43:53;98837.84;;;14.11;86.22
23953;BME280;12163;49.316;6.092;2022-11-09T05:46:20;98837.06;;;14.10;86.58
23953;BME280;12163;49.316;6.092;2022-11-09T05:48:46;98842.78;;;14.09;86.33
23953;BME280;12163;49.316;6.092;2022-11-09T05:51:13;98846.16;;;14.06;86.08
23953;BME280;12163;49.316;6.092;2022-11-09T05:53:40;98847.59;;;14.03;86.63
23953;BME280;12163;49.316;6.092;2022-11-09T05:56:12;98860.03;;;14.04;86.95
23953;BME280;12163;49.316;6.092;2022-11-09T05:58:38;98857.94;;;14.10;86.53
23953;BME280;12163;49.316;6.092;2022-11-09T06:01:14;98857.16;;;14.18;86.03
23953;BME280;12163;49.316;6.092;2022-11-09T06:03:41;98842.59;;;14.31;86.04
23953;BME280;12163;49.316;6.092;2022-11-09T06:06:12;98856.91;;;14.40;85.90
23953;BME280;12163;49.316;6.092;2022-11-09T06:08:39;98856.09;;;14.48;84.55
23953;BME280;12163;49.316;6.092;2022-11-09T06:11:08;98855.88;;;14.53;84.25
23953;BME280;12163;49.316;6.092;2022-11-09T06:13:35;98856.81;;;14.57;83.91
23953;BME280;12163;49.316;6.092;2022-11-09T06:16:03;98867.69;;;14.57;83.78
23953;BME280;12163;49.316;6.092;2022-11-09T06:18:31;98864.50;;;14.55;83.59
23953;BME280;12163;49.316;6.092;2022-11-09T06:21:00;98863.84;;;14.58;83.88
23953;BME280;12163;49.316;6.092;2022-11-09T06:23:28;98863.50;;;14.68;83.83
23953;BME280;12163;49.316;6.092;2022-11-09T06:25:59;98860.84;;;14.80;83.47
23953;BME280;12163;49.316;6.092;2022-11-09T06:28:27;98853.31;;;14.85;82.59
23953;BME280;12163;49.316;6.092;2022-11-09T06:30:58;98860.06;;;14.79;82.36
23953;BME280;12163;49.316;6.092;2022-11-09T06:33:25;98865.06;;;14.69;82.55
23953;BME280;12163;49.316;6.092;2022-11-09T06:35:52;98881.38;;;14.69;82.92
23953;BME280;12163;49.316;6.092;2022-11-09T06:38:22;98886.47;;;14.70;82.96
23953;BME280;12163;49.316;6.092;2022-11-09T06:40:52;98880.06;;;14.75;83.01
23953;BME280;12163;49.316;6.092;2022-11-09T06:43:19;98904.03;;;14.73;82.51
23953;BME280;12163;49.316;6.092;2022-11-09T06:45:46;98898.44;;;14.69;82.07
23953;BME280;12163;49.316;6.092;2022-11-09T06:48:13;98893.53;;;14.63;82.65
23953;BME280;12163;49.316;6.092;2022-11-09T06:50:40;98906.47;;;14.66;82.53
23953;BME280;12163;49.316;6.092;2022-11-09T06:53:09;98913.66;;;14.62;82.41
23953;BME280;12163;49.316;6.092;2022-11-09T06:55:36;98910.94;;;14.62;82.49
23953;BME280;12163;49.316;6.092;2022-11-09T06:58:12;98919.63;;;14.55;82.77
23953;BME280;12163;49.316;6.092;2022-11-09T07:00:42;98917.22;;;14.54;82.66
23953;BME280;12163;49.316;6.092;2022-11-09T07:03:16;98913.88;;;14.48;83.15
23953;BME280;12163;49.316;6.092;2022-11-09T07:05:44;98922.47;;;14.50;82.77
23953;BME280;12163;49.316;6.092;2022-11-09T07:08:11;98926.16;;;14.54;82.77
23953;BME280;12163;49.316;6.092;2022-11-09T07:10:38;98921.97;;;14.57;82.63
23953;BME280;12163;49.316;6.092;2022-11-09T07:13:05;98922.63;;;14.54;82.87
23953;BME280;12163;49.316;6.092;2022-11-09T07:15:33;98929.38;;;14.48;82.81
23953;BME280;12163;49.316;6.092;2022-11-09T07:18:02;98923.16;;;14.39;82.84
23953;BME280;12163;49.316;6.092;2022-11-09T07:20:30;98933.25;;;14.30;82.87
23953;BME280;12163;49.316;6.092;2022-11-09T07:22:56;98933.75;;;14.23;83.10
23953;BME280;12163;49.316;6.092;2022-11-09T07:25:23;98934.25;;;14.17;83.58
23953;BME280;12163;49.316;6.092;2022-11-09T07:27:52;98939.81;;;14.12;84.28
23953;BME280;12163;49.316;6.092;2022-11-09T07:30:19;98943.19;;;14.09;84.34
23953;BME280;12163;49.316;6.092;2022-11-09T07:32:45;98955.47;;;14.06;84.66
23953;BME280;12163;49.316;6.092;2022-11-09T07:35:32;98960.88;;;14.06;84.73
23953;BME280;12163;49.316;6.092;2022-11-09T07:37:59;98965.66;;;14.09;84.44
23953;BME280;12163;49.316;6.092;2022-11-09T07:40:27;98975.09;;;14.12;84.36
23953;BME280;12163;49.316;6.092;2022-11-09T07:42:57;98960.59;;;14.16;84.67
23953;BME280;12163;49.316;6.092;2022-11-09T07:45:24;98969.50;;;14.25;84.31
23953;BME280;12163;49.316;6.092;2022-11-09T07:48:00;98965.84;;;14.30;83.86
23953;BME280;12163;49.316;6.092;2022-11-09T07:50:29;98973.16;;;14.38;83.67
23953;BME280;12163;49.316;6.092;2022-11-09T07:52:57;98971.53;;;14.45;83.41
23953;BME280;12163;49.316;6.092;2022-11-09T07:55:25;98969.91;;;14.53;83.27
23953;BME280;12163;49.316;6.092;2022-11-09T07:57:57;98971.78;;;14.61;82.98
23953;BME280;12163;49.316;6.092;2022-11-09T08:00:25;98964.44;;;14.70;82.88
23953;BME280;12163;49.316;6.092;2022-11-09T08:02:52;98962.00;;;14.77;82.46
23953;BME280;12163;49.316;6.092;2022-11-09T08:05:18;98953.19;;;14.80;81.39
23953;BME280;12163;49.316;6.092;2022-11-09T08:07:45;98948.69;;;14.84;81.15
23953;BME280;12163;49.316;6.092;2022-11-09T08:10:13;98962.91;;;14.89;81.42
23953;BME280;12163;49.316;6.092;2022-11-09T08:12:39;98961.94;;;14.94;80.55
23953;BME280;12163;49.316;6.092;2022-11-09T08:15:06;98969.41;;;14.97;79.90
23953;BME280;12163;49.316;6.092;2022-11-09T08:17:33;98977.09;;;14.95;80.00
23953;BME280;12163;49.316;6.092;2022-11-09T08:19:59;98986.69;;;14.92;80.17
23953;BME280;12163;49.316;6.092;2022-11-09T08:22:26;98978.06;;;14.90;80.03
23953;BME280;12163;49.316;6.092;2022-11-09T08:24:52;98978.53;;;14.92;80.27
23953;BME280;12163;49.316;6.092;2022-11-09T08:27:19;98982.53;;;14.95;79.71
23953;BME280;12163;49.316;6.092;2022-11-09T08:29:48;98980.28;;;14.97;79.74
23953;BME280;12163;49.316;6.092;2022-11-09T08:32:14;98987.31;;;14.98;79.27
23953;BME280;12163;49.316;6.092;2022-11-09T08:34:45;98992.75;;;14.98;79.32
23953;BME280;12163;49.316;6.092;2022-11-09T08:37:12;98978.97;;;15.03;78.78
23953;BME280;12163;49.316;6.092;2022-11-09T08:39:39;98983.09;;;15.09;78.88
23953;BME280;12163;49.316;6.092;2022-11-09T08:42:05;98986.56;;;15.18;78.75
23953;BME280;12163;49.316;6.092;2022-11-09T08:44:32;98991.63;;;15.27;78.66
23953;BME280;12163;49.316;6.092;2022-11-09T08:46:58;98989.69;;;15.36;78.59
23953;BME280;12163;49.316;6.092;2022-11-09T08:49:25;98989.81;;;15.40;78.19
23953;BME280;12163;49.316;6.092;2022-11-09T08:51:51;98993.00;;;15.42;77.31
23953;BME280;12163;49.316;6.092;2022-11-09T08:54:18;98987.25;;;15.43;76.51
23953;BME280;12163;49.316;6.092;2022-11-09T08:56:44;98989.81;;;15.40;76.73
23953;BME280;12163;49.316;6.092;2022-11-09T08:59:11;98991.41;;;15.41;77.25
23953;BME280;12163;49.316;6.092;2022-11-09T09:01:38;98993.81;;;15.42;77.09
23953;BME280;12163;49.316;6.092;2022-11-09T09:04:04;98991.22;;;15.46;77.06
23953;BME280;12163;49.316;6.092;2022-11-09T09:06:31;98992.63;;;15.52;76.78
23953;BME280;12163;49.316;6.092;2022-11-09T09:08:58;99003.75;;;15.59;75.94
23953;BME280;12163;49.316;6.092;2022-11-09T09:11:24;99009.66;;;15.61;75.75
23953;BME280;12163;49.316;6.092;2022-11-09T09:13:51;99007.09;;;15.64;75.47
23953;BME280;12163;49.316;6.092;2022-11-09T09:16:18;99016.63;;;15.70;76.48
23953;BME280;12163;49.316;6.092;2022-11-09T09:18:46;99012.47;;;15.73;75.07
23953;BME280;12163;49.316;6.092;2022-11-09T09:21:13;99012.94;;;15.75;75.51
23953;BME280;12163;49.316;6.092;2022-11-09T09:23:40;99027.16;;;15.80;74.99
23953;BME280;12163;49.316;6.092;2022-11-09T09:26:06;99016.25;;;15.80;74.61
23953;BME280;12163;49.316;6.092;2022-11-09T09:28:33;99028.84;;;15.85;74.68
23953;BME280;12163;49.316;6.092;2022-11-09T09:31:00;99028.38;;;15.83;74.29
23953;BME280;12163;49.316;6.092;2022-11-09T09:33:27;99031.00;;;15.79;74.15
23953;BME280;12163;49.316;6.092;2022-11-09T09:35:56;99031.47;;;15.81;74.28
23953;BME280;12163;49.316;6.092;2022-11-09T09:38:24;99040.41;;;15.82;73.72
23953;BME280;12163;49.316;6.092;2022-11-09T09:40:56;99054.81;;;15.82;73.60
23953;BME280;12163;49.316;6.092;2022-11-09T09:43:43;99052.22;;;15.86;74.21
23953;BME280;12163;49.316;6.092;2022-11-09T09:46:38;99057.78;;;15.89;73.61
23953;BME280;12163;49.316;6.092;2022-11-09T09:49:13;99074.13;;;15.89;72.95
23953;BME280;12163;49.316;6.092;2022-11-09T09:51:57;99068.53;;;15.86;72.40
23953;BME280;12163;49.316;6.092;2022-11-09T09:54:31;99074.78;;;15.86;72.23
23953;BME280;12163;49.316;6.092;2022-11-09T09:57:00;99080.09;;;15.83;72.26
23953;BME280;12163;49.316;6.092;2022-11-09T09:59:41;99069.88;;;15.80;72.53
23953;BME280;12163;49.316;6.092;2022-11-09T10:02:29;99073.56;;;15.75;72.70
23953;BME280;12163;49.316;6.092;2022-11-09T10:04:58;99074.69;;;15.74;73.18
23953;BME280;12163;49.316;6.092;2022-11-09T10:07:44;99073.56;;;15.75;72.87
23953;BME280;12163;49.316;6.092;2022-11-09T10:10:36;99077.41;;;15.74;72.63
23953;BME280;12163;49.316;6.092;2022-11-09T10:26:55;99073.75;;;15.99;71.12
23953;BME280;12163;49.316;6.092;2022-11-09T10:31:51;99068.63;;;15.98;70.84
23953;BME280;12163;49.316;6.092;2022-11-09T10:34:23;99079.38;;;15.94;70.71
23953;BME280;12163;49.316;6.092;2022-11-09T10:37:02;99069.16;;;15.91;71.60
23953;BME280;12163;49.316;6.092;2022-11-09T10:39:46;99063.69;;;15.91;71.64
23953;BME280;12163;49.316;6.092;2022-11-09T10:42:14;99072.69;;;15.92;71.82
23953;BME280;12163;49.316;6.092;2022-11-09T10:44:41;99072.31;;;15.93;71.84
23953;BME280;12163;49.316;6.092;2022-11-09T10:47:11;99062.88;;;15.99;71.77
23953;BME280;12163;49.316;6.092;2022-11-09T10:49:39;99056.28;;;16.00;71.04
23953;BME280;12163;49.316;6.092;2022-11-09T10:52:30;99056.28;;;16.00;71.07
23953;BME280;12163;49.316;6.092;2022-11-09T10:57:55;99056.88;;;16.06;70.40
23953;BME280;12163;49.316;6.092;2022-11-09T11:00:23;99055.94;;;16.02;71.36
23953;BME280;12163;49.316;6.092;2022-11-09T11:02:50;99060.31;;;15.94;71.86
23953;BME280;12163;49.316;6.092;2022-11-09T11:07:45;99065.75;;;15.94;72.43
23953;BME280;12163;49.316;6.092;2022-11-09T11:12:50;99054.56;;;15.96;73.09
23953;BME280;12163;49.316;6.092;2022-11-09T11:15:23;99058.06;;;15.96;72.99
23953;BME280;12163;49.316;6.092;2022-11-09T11:17:51;99062.13;;;15.90;72.78
23953;BME280;12163;49.316;6.092;2022-11-09T11:23:24;99058.66;;;16.02;73.80
23953;BME280;12163;49.316;6.092;2022-11-09T11:28:29;99050.38;;;15.98;72.25
23953;BME280;12163;49.316;6.092;2022-11-09T11:30:57;99062.19;;;16.02;72.70
23953;BME280;12163;49.316;6.092;2022-11-09T11:33:24;99057.22;;;16.04;73.21
23953;BME280;12163;49.316;6.092;2022-11-09T11:35:52;99067.91;;;16.09;72.99
23953;BME280;12163;49.316;6.092;2022-11-09T11:38:29;99057.22;;;16.04;72.76
23953;BME280;12163;49.316;6.092;2022-11-09T11:41:04;99062.06;;;15.99;73.41
23953;BME280;12163;49.316;6.092;2022-11-09T11:43:52;99069.75;;;15.97;73.91
23953;BME280;12163;49.316;6.092;2022-11-09T11:46:38;99071.88;;;15.91;73.42
23953;BME280;12163;49.316;6.092;2022-11-09T11:49:37;99070.47;;;15.85;73.79
23953;BME280;12163;49.316;6.092;2022-11-09T11:52:46;99077.75;;;15.73;74.32
23953;BME280;12163;49.316;6.092;2022-11-09T12:00:35;99070.63;;;15.60;74.17
23953;BME280;12163;49.316;6.092;2022-11-09T12:06:15;99069.09;;;15.50;75.40
23953;BME280;12163;49.316;6.092;2022-11-09T12:08:48;99080.16;;;15.45;75.98
23953;BME280;12163;49.316;6.092;2022-11-09T12:19:48;99086.72;;;15.44;76.44
23953;BME280;12163;49.316;6.092;2022-11-09T12:36:15;99093.56;;;15.50;76.89
23953;BME280;12163;49.316;6.092;2022-11-09T12:38:50;99081.09;;;15.49;75.03
23953;BME280;12163;49.316;6.092;2022-11-09T12:41:21;99077.78;;;15.44;75.34
23953;BME280;12163;49.316;6.092;2022-11-09T12:44:10;99071.53;;;15.43;75.36
23953;BME280;12163;49.316;6.092;2022-11-09T12:46:47;99077.16;;;15.38;75.25
23953;BME280;12163;49.316;6.092;2022-11-09T12:49:39;99080.53;;;15.35;75.55
23953;BME280;12163;49.316;6.092;2022-11-09T12:52:09;99084.03;;;15.36;75.41
23953;BME280;12163;49.316;6.092;2022-11-09T12:54:43;99079.06;;;15.38;75.47
23953;BME280;12163;49.316;6.092;2022-11-09T12:57:15;99078.75;;;15.39;75.12
23953;BME280;12163;49.316;6.092;2022-11-09T12:59:50;99081.47;;;15.39;75.21
23953;BME280;12163;49.316;6.092;2022-11-09T13:02:23;99082.13;;;15.36;75.10
23953;BME280;12163;49.316;6.092;2022-11-09T13:04:55;99076.03;;;15.39;74.43
23953;BME280;12163;49.316;6.092;2022-11-09T13:07:30;99083.06;;;15.40;74.41
23953;BME280;12163;49.316;6.092;2022-11-09T13:09:59;99083.53;;;15.42;74.66
23953;BME280;12163;49.316;6.092;2022-11-09T13:12:33;99083.03;;;15.49;74.53
23953;BME280;12163;49.316;6.092;2022-11-09T13:15:24;99083.16;;;15.52;74.28
23953;BME280;12163;49.316;6.092;2022-11-09T13:17:56;99076.59;;;15.53;73.99
23953;BME280;12163;49.316;6.092;2022-11-09T13:23:46;99075.13;;;15.56;73.58
23953;BME280;12163;49.316;6.092;2022-11-09T13:29:23;99076.69;;;15.65;72.76
23953;BME280;12163;49.316;6.092;2022-11-09T13:32:03;99075.28;;;15.59;73.44
23953;BME280;12163;49.316;6.092;2022-11-09T13:43:12;99089.09;;;15.54;73.03
23953;BME280;12163;49.316;6.092;2022-11-09T13:48:46;99081.03;;;15.58;73.83
23953;BME280;12163;49.316;6.092;2022-11-09T13:56:25;99089.88;;;15.75;73.86
23953;BME280;12163;49.316;6.092;2022-11-09T14:01:35;99098.25;;;15.70;72.40
23953;BME280;12163;49.316;6.092;2022-11-09T14:09:27;99111.13;;;15.82;72.88
23953;BME280;12163;49.316;6.092;2022-11-09T14:14:51;99106.75;;;15.69;72.89
23953;BME280;12163;49.316;6.092;2022-11-09T14:17:25;99109.13;;;15.70;72.51
23953;BME280;12163;49.316;6.092;2022-11-09T14:22:43;99103.56;;;15.67;72.24
23953;BME280;12163;49.316;6.092;2022-11-09T14:25:13;99107.88;;;15.68;72.71
23953;BME280;12163;49.316;6.092;2022-11-09T14:27:52;99121.13;;;15.69;72.64
23953;BME280;12163;49.316;6.092;2022-11-09T14:30:28;99124.50;;;15.66;72.36
23953;BME280;12163;49.316;6.092;2022-11-09T14:32:56;99121.66;;;15.63;72.40
23953;BME280;12163;49.316;6.092;2022-11-09T14:35:32;99112.91;;;15.57;72.79
23953;BME280;12163;49.316;6.092;2022-11-09T14:38:16;99117.06;;;15.55;73.02
23953;BME280;12163;49.316;6.092;2022-11-09T14:40:46;99119.47;;;15.56;73.00
23953;BME280;12163;49.316;6.092;2022-11-09T14:43:24;99121.72;;;15.54;73.09
23953;BME280;12163;49.316;6.092;2022-11-09T14:45:59;99122.97;;;15.57;72.99
23953;BME280;12163;49.316;6.092;2022-11-09T14:48:27;99117.88;;;15.55;73.28
23953;BME280;12163;49.316;6.092;2022-11-09T14:50:57;99129.69;;;15.59;73.45
23953;BME280;12163;49.316;6.092;2022-11-09T14:53:34;99125.84;;;15.60;73.00